sensor_id;sensor_type;location;lat;lon;timestamp;P1;durP1;ratioP1;P2;durP2;ratioP2
46040;SDS011;31779;49.124;19.190;2022-11-23T00:01:49;47.95;;;32.33;;
46040;SDS011;31779;49.124;19.190;2022-11-23T00:04:17;40.45;;;27.88;;
46040;SDS011;31779;49.124;19.190;2022-11-23T00:06:45;30.90;;;21.98;;
46040;SDS011;31779;49.124;19.190;2022-11-23T00:09:13;32.67;;;24.85;;
46040;SDS011;31779;49.124;19.190;2022-11-23T00:11:42;37.40;;;23.35;;
46040;SDS011;31779;49.124;19.190;2022-11-23T00:14:10;31.20;;;20.95;;
46040;SDS011;31779;49.124;19.190;2022-11-23T00:16:38;26.85;;;18.33;;
46040;SDS011;31779;49.124;19.190;2022-11-23T00:19:22;26.85;;;17.85;;
46040;SDS011;31779;49.124;19.190;2022-11-23T00:21:50;21.95;;;18.38;;
46040;SDS011;31779;49.124;19.190;2022-11-23T00:24:18;26.58;;;18.05;;
46040;SDS011;31779;49.124;19.190;2022-11-23T00:26:46;31.05;;;20.83;;
46040;SDS011;31779;49.124;19.190;2022-11-23T00:29:15;26.92;;;20.50;;
46040;SDS011;31779;49.124;19.190;2022-11-23T00:31:43;28.73;;;21.45;;
46040;SDS011;31779;49.124;19.190;2022-11-23T00:34:10;30.48;;;23.33;;
46040;SDS011;31779;49.124;19.190;2022-11-23T00:36:39;28.90;;;20.95;;
46040;SDS011;31779;49.124;19.190;2022-11-23T00:39:07;26.17;;;19.15;;
46040;SDS011;31779;49.124;19.190;2022-11-23T00:41:34;34.10;;;23.63;;
46040;SDS011;31779;49.124;19.190;2022-11-23T00:44:02;34.53;;;26.13;;
46040;SDS011;31779;49.124;19.190;2022-11-23T00:46:30;33.95;;;23.52;;
46040;SDS011;31779;49.124;19.190;2022-11-23T00:48:58;32.90;;;25.75;;
46040;SDS011;31779;49.124;19.190;2022-11-23T00:51:27;30.27;;;23.13;;
46040;SDS011;31779;49.124;19.190;2022-11-23T00:53:57;33.05;;;22.00;;
46040;SDS011;31779;49.124;19.190;2022-11-23T00:56:26;29.60;;;22.15;;
46040;SDS011;31779;49.124;19.190;2022-11-23T00:58:55;34.75;;;23.48;;
46040;SDS011;31779;49.124;19.190;2022-11-23T01:01:26;31.83;;;22.80;;
46040;SDS011;31779;49.124;19.190;2022-11-23T01:04:01;32.42;;;23.98;;
46040;SDS011;31779;49.124;19.190;2022-11-23T01:06:31;27.95;;;20.27;;
46040;SDS011;31779;49.124;19.190;2022-11-23T01:09:03;30.33;;;21.33;;
46040;SDS011;31779;49.124;19.190;2022-11-23T01:11:38;27.25;;;19.75;;
46040;SDS011;31779;49.124;19.190;2022-11-23T01:14:07;33.03;;;20.02;;
46040;SDS011;31779;49.124;19.190;2022-11-23T01:16:38;33.17;;;22.83;;
46040;SDS011;31779;49.124;19.190;2022-11-23T01:19:15;29.92;;;21.70;;
46040;SDS011;31779;49.124;19.190;2022-11-23T01:21:48;27.90;;;22.25;;
46040;SDS011;31779;49.124;19.190;2022-11-23T01:24:17;29.77;;;21.00;;
46040;SDS011;31779;49.124;19.190;2022-11-23T01:26:50;27.00;;;21.02;;
46040;SDS011;31779;49.124;19.190;2022-11-23T01:29:20;25.83;;;19.58;;
46040;SDS011;31779;49.124;19.190;2022-11-23T01:31:49;24.60;;;17.92;;
46040;SDS011;31779;49.124;19.190;2022-11-23T01:34:17;27.33;;;21.45;;
46040;SDS011;31779;49.124;19.190;2022-11-23T01:36:45;27.67;;;21.95;;
46040;SDS011;31779;49.124;19.190;2022-11-23T01:39:13;29.58;;;21.85;;
46040;SDS011;31779;49.124;19.190;2022-11-23T01:41:42;27.02;;;20.83;;
46040;SDS011;31779;49.124;19.190;2022-11-23T01:44:46;25.92;;;20.38;;
46040;SDS011;31779;49.124;19.190;2022-11-23T01:47:08;27.88;;;19.48;;
46040;SDS011;31779;49.124;19.190;2022-11-23T01:49:42;33.20;;;23.08;;
46040;SDS011;31779;49.124;19.190;2022-11-23T01:52:16;32.92;;;22.17;;
46040;SDS011;31779;49.124;19.190;2022-11-23T01:54:49;32.42;;;22.58;;
46040;SDS011;31779;49.124;19.190;2022-11-23T01:57:27;32.10;;;21.33;;
46040;SDS011;31779;49.124;19.190;2022-11-23T02:00:02;30.40;;;22.15;;
46040;SDS011;31779;49.124;19.190;2022-11-23T02:02:39;27.40;;;20.30;;
46040;SDS011;31779;49.124;19.190;2022-11-23T02:05:14;28.95;;;20.33;;
46040;SDS011;31779;49.124;19.190;2022-11-23T02:07:47;28.88;;;20.42;;
46040;SDS011;31779;49.124;19.190;2022-11-23T02:10:16;21.65;;;17.55;;
46040;SDS011;31779;49.124;19.190;2022-11-23T02:12:45;22.08;;;17.90;;
46040;SDS011;31779;49.124;19.190;2022-11-23T02:15:13;26.92;;;20.55;;
46040;SDS011;31779;49.124;19.190;2022-11-23T02:17:42;24.00;;;20.02;;
46040;SDS011;31779;49.124;19.190;2022-11-23T02:20:13;26.10;;;20.30;;
46040;SDS011;31779;49.124;19.190;2022-11-23T02:22:53;26.83;;;19.25;;
46040;SDS011;31779;49.124;19.190;2022-11-23T02:25:38;24.65;;;19.55;;
46040;SDS011;31779;49.124;19.190;2022-11-23T02:28:11;23.75;;;18.08;;
46040;SDS011;31779;49.124;19.190;2022-11-23T02:30:45;26.05;;;18.13;;
46040;SDS011;31779;49.124;19.190;2022-11-23T02:33:16;28.95;;;18.70;;
46040;SDS011;31779;49.124;19.190;2022-11-23T02:35:48;29.65;;;19.88;;
46040;SDS011;31779;49.124;19.190;2022-11-23T02:38:22;25.67;;;20.00;;
46040;SDS011;31779;49.124;19.190;2022-11-23T02:40:54;31.75;;;23.65;;
46040;SDS011;31779;49.124;19.190;2022-11-23T02:43:23;28.33;;;20.75;;
46040;SDS011;31779;49.124;19.190;2022-11-23T02:46:00;27.48;;;19.75;;
46040;SDS011;31779;49.124;19.190;2022-11-23T02:48:31;30.40;;;21.95;;
46040;SDS011;31779;49.124;19.190;2022-11-23T02:51:01;29.15;;;21.42;;
46040;SDS011;31779;49.124;19.190;2022-11-23T02:53:30;30.30;;;21.60;;
46040;SDS011;31779;49.124;19.190;2022-11-23T02:55:58;23.13;;;19.75;;
46040;SDS011;31779;49.124;19.190;2022-11-23T02:58:26;27.23;;;20.88;;
46040;SDS011;31779;49.124;19.190;2022-11-23T03:00:54;24.88;;;20.48;;
46040;SDS011;31779;49.124;19.190;2022-11-23T03:03:22;26.65;;;21.27;;
46040;SDS011;31779;49.124;19.190;2022-11-23T03:05:50;24.05;;;18.70;;
46040;SDS011;31779;49.124;19.190;2022-11-23T03:08:18;23.80;;;19.15;;
46040;SDS011;31779;49.124;19.190;2022-11-23T03:11:04;26.00;;;20.25;;
46040;SDS011;31779;49.124;19.190;2022-11-23T03:13:32;25.45;;;18.45;;
46040;SDS011;31779;49.124;19.190;2022-11-23T03:16:01;25.52;;;20.02;;
46040;SDS011;31779;49.124;19.190;2022-11-23T03:18:28;25.30;;;17.73;;
46040;SDS011;31779;49.124;19.190;2022-11-23T03:21:01;23.42;;;17.80;;
46040;SDS011;31779;49.124;19.190;2022-11-23T03:23:35;24.48;;;17.70;;
46040;SDS011;31779;49.124;19.190;2022-11-23T03:26:06;21.73;;;16.75;;
46040;SDS011;31779;49.124;19.190;2022-11-23T03:28:47;22.17;;;17.15;;
46040;SDS011;31779;49.124;19.190;2022-11-23T03:31:15;24.35;;;17.08;;
46040;SDS011;31779;49.124;19.190;2022-11-23T03:33:44;23.00;;;16.58;;
46040;SDS011;31779;49.124;19.190;2022-11-23T03:36:12;22.35;;;17.00;;
46040;SDS011;31779;49.124;19.190;2022-11-23T03:38:43;26.05;;;20.17;;
46040;SDS011;31779;49.124;19.190;2022-11-23T03:41:37;23.27;;;18.27;;
46040;SDS011;31779;49.124;19.190;2022-11-23T03:44:05;23.67;;;18.13;;
46040;SDS011;31779;49.124;19.190;2022-11-23T03:46:33;22.15;;;16.70;;
46040;SDS011;31779;49.124;19.190;2022-11-23T03:49:01;22.65;;;16.83;;
46040;SDS011;31779;49.124;19.190;2022-11-23T03:51:28;23.08;;;18.65;;
46040;SDS011;31779;49.124;19.190;2022-11-23T03:53:57;22.02;;;17.60;;
46040;SDS011;31779;49.124;19.190;2022-11-23T03:56:26;23.08;;;17.23;;
46040;SDS011;31779;49.124;19.190;2022-11-23T03:58:55;20.83;;;16.63;;
46040;SDS011;31779;49.124;19.190;2022-11-23T04:01:23;25.13;;;17.80;;
46040;SDS011;31779;49.124;19.190;2022-11-23T04:03:59;27.98;;;19.58;;
46040;SDS011;31779;49.124;19.190;2022-11-23T04:06:50;26.83;;;19.92;;
46040;SDS011;31779;49.124;19.190;2022-11-23T04:09:23;28.20;;;19.45;;
46040;SDS011;31779;49.124;19.190;2022-11-23T04:12:11;25.92;;;18.13;;
46040;SDS011;31779;49.124;19.190;2022-11-23T04:14:39;22.50;;;18.00;;
46040;SDS011;31779;49.124;19.190;2022-11-23T04:17:07;24.27;;;20.30;;
46040;SDS011;31779;49.124;19.190;2022-11-23T04:19:36;20.88;;;16.90;;
46040;SDS011;31779;49.124;19.190;2022-11-23T04:22:04;23.48;;;18.92;;
46040;SDS011;31779;49.124;19.190;2022-11-23T04:24:37;25.30;;;20.25;;
46040;SDS011;31779;49.124;19.190;2022-11-23T04:27:07;28.47;;;21.27;;
46040;SDS011;31779;49.124;19.190;2022-11-23T04:29:36;25.60;;;19.10;;
46040;SDS011;31779;49.124;19.190;2022-11-23T04:32:04;28.77;;;20.13;;
46040;SDS011;31779;49.124;19.190;2022-11-23T04:34:32;24.27;;;18.52;;
46040;SDS011;31779;49.124;19.190;2022-11-23T04:39:38;26.95;;;21.67;;
46040;SDS011;31779;49.124;19.190;2022-11-23T04:42:32;30.83;;;19.75;;
46040;SDS011;31779;49.124;19.190;2022-11-23T04:45:01;25.67;;;19.42;;
46040;SDS011;31779;49.124;19.190;2022-11-23T04:47:29;24.02;;;19.73;;
46040;SDS011;31779;49.124;19.190;2022-11-23T04:50:02;25.38;;;19.40;;
46040;SDS011;31779;49.124;19.190;2022-11-23T04:52:30;24.73;;;19.73;;
46040;SDS011;31779;49.124;19.190;2022-11-23T04:54:58;29.35;;;21.95;;
46040;SDS011;31779;49.124;19.190;2022-11-23T04:57:29;26.40;;;18.85;;
46040;SDS011;31779;49.124;19.190;2022-11-23T05:00:01;29.58;;;20.90;;
46040;SDS011;31779;49.124;19.190;2022-11-23T05:02:32;30.38;;;20.52;;
46040;SDS011;31779;49.124;19.190;2022-11-23T05:05:17;26.77;;;20.13;;
46040;SDS011;31779;49.124;19.190;2022-11-23T05:07:45;28.98;;;24.08;;
46040;SDS011;31779;49.124;19.190;2022-11-23T05:10:15;26.00;;;19.95;;
46040;SDS011;31779;49.124;19.190;2022-11-23T05:13:03;26.08;;;19.80;;
46040;SDS011;31779;49.124;19.190;2022-11-23T05:15:31;29.35;;;21.25;;
46040;SDS011;31779;49.124;19.190;2022-11-23T05:18:03;28.52;;;20.30;;
46040;SDS011;31779;49.124;19.190;2022-11-23T05:20:38;31.50;;;21.92;;
46040;SDS011;31779;49.124;19.190;2022-11-23T05:23:06;29.77;;;19.98;;
46040;SDS011;31779;49.124;19.190;2022-11-23T05:25:37;28.30;;;20.45;;
46040;SDS011;31779;49.124;19.190;2022-11-23T05:31:01;30.70;;;21.92;;
46040;SDS011;31779;49.124;19.190;2022-11-23T05:33:28;29.45;;;20.60;;
46040;SDS011;31779;49.124;19.190;2022-11-23T05:35:56;31.23;;;22.77;;
46040;SDS011;31779;49.124;19.190;2022-11-23T05:41:37;32.63;;;20.73;;
46040;SDS011;31779;49.124;19.190;2022-11-23T05:44:17;21.92;;;18.65;;
46040;SDS011;31779;49.124;19.190;2022-11-23T05:46:46;29.00;;;21.10;;
46040;SDS011;31779;49.124;19.190;2022-11-23T05:49:14;31.48;;;22.00;;
46040;SDS011;31779;49.124;19.190;2022-11-23T05:51:42;37.67;;;23.42;;
46040;SDS011;31779;49.124;19.190;2022-11-23T05:54:10;31.13;;;21.85;;
46040;SDS011;31779;49.124;19.190;2022-11-23T05:56:42;30.75;;;22.75;;
46040;SDS011;31779;49.124;19.190;2022-11-23T05:59:17;28.48;;;20.55;;
46040;SDS011;31779;49.124;19.190;2022-11-23T06:01:50;28.70;;;19.52;;
46040;SDS011;31779;49.124;19.190;2022-11-23T06:04:29;29.42;;;21.17;;
46040;SDS011;31779;49.124;19.190;2022-11-23T06:06:58;28.98;;;22.83;;
46040;SDS011;31779;49.124;19.190;2022-11-23T06:09:36;30.95;;;20.85;;
46040;SDS011;31779;49.124;19.190;2022-11-23T06:12:07;28.50;;;20.83;;
46040;SDS011;31779;49.124;19.190;2022-11-23T06:14:36;33.42;;;21.52;;
46040;SDS011;31779;49.124;19.190;2022-11-23T06:17:04;26.15;;;20.20;;
46040;SDS011;31779;49.124;19.190;2022-11-23T06:19:43;30.42;;;22.50;;
46040;SDS011;31779;49.124;19.190;2022-11-23T06:22:12;32.28;;;24.20;;
46040;SDS011;31779;49.124;19.190;2022-11-23T06:24:50;32.60;;;22.23;;
46040;SDS011;31779;49.124;19.190;2022-11-23T06:27:38;31.55;;;23.65;;
46040;SDS011;31779;49.124;19.190;2022-11-23T06:30:14;33.78;;;24.85;;
46040;SDS011;31779;49.124;19.190;2022-11-23T06:32:42;33.33;;;24.30;;
46040;SDS011;31779;49.124;19.190;2022-11-23T06:35:10;29.30;;;23.58;;
46040;SDS011;31779;49.124;19.190;2022-11-23T06:40:09;36.42;;;25.40;;
46040;SDS011;31779;49.124;19.190;2022-11-23T06:42:39;36.55;;;25.80;;
46040;SDS011;31779;49.124;19.190;2022-11-23T06:45:21;38.67;;;26.77;;
46040;SDS011;31779;49.124;19.190;2022-11-23T06:47:53;35.05;;;23.52;;
46040;SDS011;31779;49.124;19.190;2022-11-23T06:50:22;35.10;;;25.98;;
46040;SDS011;31779;49.124;19.190;2022-11-23T06:52:53;45.78;;;28.77;;
46040;SDS011;31779;49.124;19.190;2022-11-23T06:55:41;38.75;;;29.27;;
46040;SDS011;31779;49.124;19.190;2022-11-23T06:58:12;34.80;;;27.15;;
46040;SDS011;31779;49.124;19.190;2022-11-23T07:00:40;41.13;;;28.25;;
46040;SDS011;31779;49.124;19.190;2022-11-23T07:03:13;39.15;;;27.08;;
46040;SDS011;31779;49.124;19.190;2022-11-23T07:05:49;35.90;;;27.10;;
46040;SDS011;31779;49.124;19.190;2022-11-23T07:08:20;37.17;;;27.25;;
46040;SDS011;31779;49.124;19.190;2022-11-23T07:10:48;43.58;;;26.50;;
46040;SDS011;31779;49.124;19.190;2022-11-23T07:13:16;36.30;;;25.85;;
46040;SDS011;31779;49.124;19.190;2022-11-23T07:15:45;35.25;;;26.10;;
46040;SDS011;31779;49.124;19.190;2022-11-23T07:18:12;36.47;;;25.58;;
46040;SDS011;31779;49.124;19.190;2022-11-23T07:20:47;34.70;;;24.85;;
46040;SDS011;31779;49.124;19.190;2022-11-23T07:23:15;31.10;;;21.15;;
46040;SDS011;31779;49.124;19.190;2022-11-23T07:25:43;28.48;;;21.65;;
46040;SDS011;31779;49.124;19.190;2022-11-23T07:28:11;32.55;;;23.52;;
46040;SDS011;31779;49.124;19.190;2022-11-23T07:30:40;28.63;;;21.98;;
46040;SDS011;31779;49.124;19.190;2022-11-23T07:33:09;33.83;;;23.42;;
46040;SDS011;31779;49.124;19.190;2022-11-23T07:35:40;31.08;;;21.65;;
46040;SDS011;31779;49.124;19.190;2022-11-23T07:38:08;25.95;;;21.10;;
46040;SDS011;31779;49.124;19.190;2022-11-23T07:40:37;26.90;;;21.00;;
46040;SDS011;31779;49.124;19.190;2022-11-23T07:43:14;35.63;;;22.73;;
46040;SDS011;31779;49.124;19.190;2022-11-23T07:45:47;27.15;;;20.35;;
46040;SDS011;31779;49.124;19.190;2022-11-23T07:48:16;26.98;;;20.08;;
46040;SDS011;31779;49.124;19.190;2022-11-23T07:50:44;28.52;;;21.13;;
46040;SDS011;31779;49.124;19.190;2022-11-23T07:53:12;28.40;;;22.27;;
46040;SDS011;31779;49.124;19.190;2022-11-23T07:55:40;30.95;;;19.35;;
46040;SDS011;31779;49.124;19.190;2022-11-23T07:58:08;28.58;;;20.90;;
46040;SDS011;31779;49.124;19.190;2022-11-23T08:00:37;23.48;;;19.08;;
46040;SDS011;31779;49.124;19.190;2022-11-23T08:03:06;27.27;;;20.05;;
46040;SDS011;31779;49.124;19.190;2022-11-23T08:05:54;29.20;;;20.27;;
46040;SDS011;31779;49.124;19.190;2022-11-23T08:08:22;26.88;;;18.58;;
46040;SDS011;31779;49.124;19.190;2022-11-23T08:10:51;23.15;;;16.98;;
46040;SDS011;31779;49.124;19.190;2022-11-23T08:13:20;28.23;;;20.63;;
46040;SDS011;31779;49.124;19.190;2022-11-23T08:15:49;22.25;;;19.10;;
46040;SDS011;31779;49.124;19.190;2022-11-23T08:18:25;23.25;;;18.33;;
46040;SDS011;31779;49.124;19.190;2022-11-23T08:20:54;25.50;;;19.80;;
46040;SDS011;31779;49.124;19.190;2022-11-23T08:23:26;29.73;;;21.45;;
46040;SDS011;31779;49.124;19.190;2022-11-23T08:25:54;34.95;;;27.27;;
46040;SDS011;31779;49.124;19.190;2022-11-23T08:28:22;42.50;;;30.83;;
46040;SDS011;31779;49.124;19.190;2022-11-23T08:30:51;42.70;;;29.83;;
46040;SDS011;31779;49.124;19.190;2022-11-23T08:33:19;39.15;;;31.80;;
46040;SDS011;31779;49.124;19.190;2022-11-23T08:35:47;38.17;;;27.23;;
46040;SDS011;31779;49.124;19.190;2022-11-23T08:38:15;41.78;;;31.13;;
46040;SDS011;31779;49.124;19.190;2022-11-23T08:40:44;41.20;;;30.05;;
46040;SDS011;31779;49.124;19.190;2022-11-23T08:43:11;42.17;;;28.75;;
46040;SDS011;31779;49.124;19.190;2022-11-23T08:45:40;39.72;;;30.48;;
46040;SDS011;31779;49.124;19.190;2022-11-23T08:48:08;40.17;;;27.77;;
46040;SDS011;31779;49.124;19.190;2022-11-23T08:50:36;37.60;;;28.33;;
46040;SDS011;31779;49.124;19.190;2022-11-23T08:53:05;37.42;;;28.20;;
46040;SDS011;31779;49.124;19.190;2022-11-23T08:55:33;36.55;;;27.30;;
46040;SDS011;31779;49.124;19.190;2022-11-23T08:58:02;38.97;;;28.73;;
46040;SDS011;31779;49.124;19.190;2022-11-23T09:00:37;39.72;;;28.75;;
46040;SDS011;31779;49.124;19.190;2022-11-23T09:03:08;38.92;;;27.95;;
46040;SDS011;31779;49.124;19.190;2022-11-23T09:05:37;42.63;;;31.60;;
46040;SDS011;31779;49.124;19.190;2022-11-23T09:08:05;38.17;;;28.13;;
46040;SDS011;31779;49.124;19.190;2022-11-23T09:10:35;40.05;;;27.92;;
46040;SDS011;31779;49.124;19.190;2022-11-23T09:13:03;37.00;;;27.92;;
46040;SDS011;31779;49.124;19.190;2022-11-23T09:15:31;46.08;;;31.60;;
46040;SDS011;31779;49.124;19.190;2022-11-23T09:17:59;45.80;;;30.55;;
46040;SDS011;31779;49.124;19.190;2022-11-23T09:20:28;38.80;;;27.83;;
46040;SDS011;31779;49.124;19.190;2022-11-23T09:22:57;29.42;;;22.15;;
46040;SDS011;31779;49.124;19.190;2022-11-23T09:25:25;29.65;;;22.95;;
46040;SDS011;31779;49.124;19.190;2022-11-23T09:27:56;29.35;;;20.77;;
46040;SDS011;31779;49.124;19.190;2022-11-23T09:30:30;29.83;;;22.77;;
46040;SDS011;31779;49.124;19.190;2022-11-23T09:32:59;26.88;;;19.20;;
46040;SDS011;31779;49.124;19.190;2022-11-23T09:35:27;24.13;;;18.17;;
46040;SDS011;31779;49.124;19.190;2022-11-23T09:37:56;25.83;;;18.08;;
46040;SDS011;31779;49.124;19.190;2022-11-23T09:40:30;25.45;;;20.80;;
46040;SDS011;31779;49.124;19.190;2022-11-23T09:45:41;28.70;;;20.60;;
46040;SDS011;31779;49.124;19.190;2022-11-23T09:56:15;26.98;;;22.60;;
46040;SDS011;31779;49.124;19.190;2022-11-23T09:58:54;27.65;;;21.08;;
46040;SDS011;31779;49.124;19.190;2022-11-23T10:01:25;27.00;;;20.42;;
46040;SDS011;31779;49.124;19.190;2022-11-23T10:04:00;27.10;;;20.75;;
46040;SDS011;31779;49.124;19.190;2022-11-23T10:06:32;27.42;;;20.90;;
46040;SDS011;31779;49.124;19.190;2022-11-23T10:12:14;26.10;;;19.33;;
46040;SDS011;31779;49.124;19.190;2022-11-23T10:14:58;27.13;;;20.58;;
46040;SDS011;31779;49.124;19.190;2022-11-23T10:23:33;26.42;;;21.00;;
46040;SDS011;31779;49.124;19.190;2022-11-23T10:26:18;27.30;;;21.90;;
46040;SDS011;31779;49.124;19.190;2022-11-23T10:28:47;24.20;;;21.05;;
46040;SDS011;31779;49.124;19.190;2022-11-23T10:31:18;28.83;;;22.15;;
46040;SDS011;31779;49.124;19.190;2022-11-23T10:34:03;29.58;;;21.70;;
46040;SDS011;31779;49.124;19.190;2022-11-23T10:36:37;30.13;;;23.63;;
46040;SDS011;31779;49.124;19.190;2022-11-23T10:41:46;30.80;;;23.63;;
46040;SDS011;31779;49.124;19.190;2022-11-23T10:46:53;35.00;;;23.80;;
46040;SDS011;31779;49.124;19.190;2022-11-23T10:49:22;34.40;;;22.83;;
46040;SDS011;31779;49.124;19.190;2022-11-23T10:52:01;34.72;;;23.77;;
46040;SDS011;31779;49.124;19.190;2022-11-23T10:54:55;30.58;;;23.45;;
46040;SDS011;31779;49.124;19.190;2022-11-23T10:57:41;31.02;;;22.27;;
46040;SDS011;31779;49.124;19.190;2022-11-23T11:02:43;27.45;;;20.70;;
46040;SDS011;31779;49.124;19.190;2022-11-23T11:08:27;26.60;;;20.25;;
46040;SDS011;31779;49.124;19.190;2022-11-23T11:13:49;31.80;;;22.60;;
46040;SDS011;31779;49.124;19.190;2022-11-23T11:16:21;27.77;;;21.42;;
46040;SDS011;31779;49.124;19.190;2022-11-23T11:18:57;31.48;;;23.08;;
46040;SDS011;31779;49.124;19.190;2022-11-23T11:21:32;27.05;;;20.50;;
46040;SDS011;31779;49.124;19.190;2022-11-23T11:24:01;29.52;;;21.25;;
46040;SDS011;31779;49.124;19.190;2022-11-23T11:26:32;22.70;;;19.05;;
46040;SDS011;31779;49.124;19.190;2022-11-23T11:29:03;22.60;;;17.88;;
46040;SDS011;31779;49.124;19.190;2022-11-23T11:37:01;25.90;;;19.80;;
46040;SDS011;31779;49.124;19.190;2022-11-23T11:39:36;25.27;;;19.85;;
46040;SDS011;31779;49.124;19.190;2022-11-23T11:42:19;24.05;;;18.40;;
46040;SDS011;31779;49.124;19.190;2022-11-23T11:44:54;24.48;;;17.88;;
46040;SDS011;31779;49.124;19.190;2022-11-23T11:47:29;28.95;;;21.60;;
46040;SDS011;31779;49.124;19.190;2022-11-23T11:50:05;26.23;;;21.05;;
46040;SDS011;31779;49.124;19.190;2022-11-23T11:53:09;25.98;;;20.77;;
46040;SDS011;31779;49.124;19.190;2022-11-23T11:58:23;23.42;;;18.60;;
46040;SDS011;31779;49.124;19.190;2022-11-23T12:03:51;24.40;;;19.95;;
46040;SDS011;31779;49.124;19.190;2022-11-23T12:06:41;24.88;;;19.00;;
46040;SDS011;31779;49.124;19.190;2022-11-23T12:11:44;22.40;;;18.10;;
46040;SDS011;31779;49.124;19.190;2022-11-23T12:14:13;31.05;;;20.70;;
46040;SDS011;31779;49.124;19.190;2022-11-23T12:19:58;28.63;;;20.95;;
46040;SDS011;31779;49.124;19.190;2022-11-23T12:38:49;32.17;;;22.23;;
46040;SDS011;31779;49.124;19.190;2022-11-23T12:41:38;28.80;;;20.90;;
46040;SDS011;31779;49.124;19.190;2022-11-23T12:47:21;40.08;;;27.58;;
46040;SDS011;31779;49.124;19.190;2022-11-23T12:58:28;22.67;;;18.83;;
46040;SDS011;31779;49.124;19.190;2022-11-23T13:01:03;21.07;;;16.10;;
46040;SDS011;31779;49.124;19.190;2022-11-23T13:12:27;24.00;;;18.38;;
46040;SDS011;31779;49.124;19.190;2022-11-23T13:22:54;25.15;;;19.90;;
46040;SDS011;31779;49.124;19.190;2022-11-23T13:27:54;28.73;;;20.35;;
46040;SDS011;31779;49.124;19.190;2022-11-23T13:30:45;29.80;;;23.25;;
46040;SDS011;31779;49.124;19.190;2022-11-23T13:33:44;29.55;;;22.35;;
46040;SDS011;31779;49.124;19.190;2022-11-23T13:42:26;17.98;;;14.25;;
46040;SDS011;31779;49.124;19.190;2022-11-23T13:50:35;26.20;;;18.63;;
46040;SDS011;31779;49.124;19.190;2022-11-23T13:55:51;22.98;;;16.73;;
46040;SDS011;31779;49.124;19.190;2022-11-23T14:00:50;23.95;;;19.20;;
46040;SDS011;31779;49.124;19.190;2022-11-23T14:06:26;26.33;;;19.85;;
46040;SDS011;31779;49.124;19.190;2022-11-23T14:11:41;27.38;;;21.27;;
46040;SDS011;31779;49.124;19.190;2022-11-23T14:14:28;25.67;;;19.45;;
46040;SDS011;31779;49.124;19.190;2022-11-23T14:28:08;29.65;;;21.85;;
46040;SDS011;31779;49.124;19.190;2022-11-23T14:41:21;31.33;;;20.70;;
46040;SDS011;31779;49.124;19.190;2022-11-23T14:43:54;30.30;;;21.58;;
46040;SDS011;31779;49.124;19.190;2022-11-23T14:46:23;28.17;;;22.40;;
46040;SDS011;31779;49.124;19.190;2022-11-23T14:48:55;29.02;;;21.10;;
46040;SDS011;31779;49.124;19.190;2022-11-23T14:51:33;24.67;;;19.80;;
46040;SDS011;31779;49.124;19.190;2022-11-23T14:54:07;28.20;;;19.58;;
46040;SDS011;31779;49.124;19.190;2022-11-23T14:56:47;25.17;;;18.25;;
46040;SDS011;31779;49.124;19.190;2022-11-23T15:01:57;25.33;;;18.08;;
46040;SDS011;31779;49.124;19.190;2022-11-23T15:04:31;29.98;;;20.80;;
46040;SDS011;31779;49.124;19.190;2022-11-23T15:07:10;26.15;;;20.90;;
46040;SDS011;31779;49.124;19.190;2022-11-23T15:09:56;26.48;;;21.48;;
46040;SDS011;31779;49.124;19.190;2022-11-23T15:12:52;25.38;;;19.23;;
46040;SDS011;31779;49.124;19.190;2022-11-23T15:15:24;30.05;;;21.85;;
46040;SDS011;31779;49.124;19.190;2022-11-23T15:17:54;25.45;;;19.70;;
46040;SDS011;31779;49.124;19.190;2022-11-23T15:20:33;27.67;;;20.23;;
46040;SDS011;31779;49.124;19.190;2022-11-23T15:23:16;32.65;;;21.58;;
46040;SDS011;31779;49.124;19.190;2022-11-23T15:25:54;26.33;;;20.27;;
46040;SDS011;31779;49.124;19.190;2022-11-23T15:28:27;29.63;;;20.77;;
46040;SDS011;31779;49.124;19.190;2022-11-23T15:30:56;29.45;;;22.52;;
46040;SDS011;31779;49.124;19.190;2022-11-23T15:33:25;28.55;;;21.55;;
46040;SDS011;31779;49.124;19.190;2022-11-23T15:35:54;35.47;;;24.30;;
46040;SDS011;31779;49.124;19.190;2022-11-23T15:38:22;29.52;;;22.73;;
46040;SDS011;31779;49.124;19.190;2022-11-23T15:40:52;34.25;;;22.80;;
46040;SDS011;31779;49.124;19.190;2022-11-23T15:43:20;29.50;;;22.90;;
46040;SDS011;31779;49.124;19.190;2022-11-23T15:51:05;35.85;;;23.63;;
46040;SDS011;31779;49.124;19.190;2022-11-23T15:56:33;35.88;;;24.52;;
46040;SDS011;31779;49.124;19.190;2022-11-23T15:59:04;43.53;;;26.65;;
46040;SDS011;31779;49.124;19.190;2022-11-23T16:01:59;33.20;;;24.58;;
46040;SDS011;31779;49.124;19.190;2022-11-23T16:04:34;32.08;;;24.65;;
46040;SDS011;31779;49.124;19.190;2022-11-23T16:07:11;35.08;;;23.45;;
46040;SDS011;31779;49.124;19.190;2022-11-23T16:09:50;30.33;;;23.35;;
46040;SDS011;31779;49.124;19.190;2022-11-23T16:12:31;32.42;;;21.90;;
46040;SDS011;31779;49.124;19.190;2022-11-23T16:18:16;32.28;;;24.30;;
46040;SDS011;31779;49.124;19.190;2022-11-23T16:20:55;28.90;;;22.10;;
46040;SDS011;31779;49.124;19.190;2022-11-23T16:23:27;26.10;;;20.90;;
46040;SDS011;31779;49.124;19.190;2022-11-23T16:25:59;30.15;;;23.13;;
46040;SDS011;31779;49.124;19.190;2022-11-23T16:28:30;29.63;;;22.20;;
46040;SDS011;31779;49.124;19.190;2022-11-23T16:31:01;40.50;;;22.77;;
46040;SDS011;31779;49.124;19.190;2022-11-23T16:33:29;29.63;;;23.10;;
46040;SDS011;31779;49.124;19.190;2022-11-23T16:35:58;33.22;;;23.35;;
46040;SDS011;31779;49.124;19.190;2022-11-23T16:38:27;30.48;;;20.25;;
46040;SDS011;31779;49.124;19.190;2022-11-23T16:40:55;32.92;;;23.45;;
46040;SDS011;31779;49.124;19.190;2022-11-23T16:43:23;31.55;;;22.45;;
46040;SDS011;31779;49.124;19.190;2022-11-23T16:45:51;31.50;;;22.95;;
46040;SDS011;31779;49.124;19.190;2022-11-23T16:51:04;32.90;;;23.25;;
46040;SDS011;31779;49.124;19.190;2022-11-23T16:53:32;27.42;;;22.55;;
46040;SDS011;31779;49.124;19.190;2022-11-23T16:56:21;29.85;;;22.08;;
46040;SDS011;31779;49.124;19.190;2022-11-23T16:58:52;31.02;;;22.25;;
46040;SDS011;31779;49.124;19.190;2022-11-23T17:01:25;27.75;;;21.92;;
46040;SDS011;31779;49.124;19.190;2022-11-23T17:03:56;30.55;;;24.13;;
46040;SDS011;31779;49.124;19.190;2022-11-23T17:06:24;29.13;;;22.33;;
46040;SDS011;31779;49.124;19.190;2022-11-23T17:08:57;30.33;;;23.00;;
46040;SDS011;31779;49.124;19.190;2022-11-23T17:11:34;28.02;;;22.55;;
46040;SDS011;31779;49.124;19.190;2022-11-23T17:14:25;31.52;;;22.50;;
46040;SDS011;31779;49.124;19.190;2022-11-23T17:16:56;31.75;;;21.95;;
46040;SDS011;31779;49.124;19.190;2022-11-23T17:19:46;29.45;;;20.63;;
46040;SDS011;31779;49.124;19.190;2022-11-23T17:22:19;21.65;;;17.10;;
46040;SDS011;31779;49.124;19.190;2022-11-23T17:24:48;28.13;;;20.67;;
46040;SDS011;31779;49.124;19.190;2022-11-23T17:27:21;29.73;;;20.73;;
46040;SDS011;31779;49.124;19.190;2022-11-23T17:29:58;24.73;;;19.02;;